sensor_id;sensor_type;location;lat;lon;timestamp;P1;durP1;ratioP1;P2;durP2;ratioP2
12141;SDS011;6134;59.284;18.022;2023-11-19T00:00:27;1.98;;;1.80;;
12141;SDS011;6134;59.284;18.022;2023-11-19T00:02:58;1.98;;;1.77;;
12141;SDS011;6134;59.284;18.022;2023-11-19T00:05:26;1.98;;;1.77;;
12141;SDS011;6134;59.284;18.022;2023-11-19T00:07:55;1.75;;;1.65;;
12141;SDS011;6134;59.284;18.022;2023-11-19T00:10:24;2.25;;;2.05;;
12141;SDS011;6134;59.284;18.022;2023-11-19T00:12:53;1.92;;;1.73;;
12141;SDS011;6134;59.284;18.022;2023-11-19T00:15:23;1.80;;;1.70;;
12141;SDS011;6134;59.284;18.022;2023-11-19T00:17:52;1.85;;;1.70;;
12141;SDS011;6134;59.284;18.022;2023-11-19T00:20:24;2.92;;;1.88;;
12141;SDS011;6134;59.284;18.022;2023-11-19T00:22:53;1.92;;;1.83;;
12141;SDS011;6134;59.284;18.022;2023-11-19T00:25:22;2.10;;;1.90;;
12141;SDS011;6134;59.284;18.022;2023-11-19T00:27:52;2.20;;;2.00;;
12141;SDS011;6134;59.284;18.022;2023-11-19T00:30:22;2.40;;;1.88;;
12141;SDS011;6134;59.284;18.022;2023-11-19T00:32:53;1.98;;;1.77;;
12141;SDS011;6134;59.284;18.022;2023-11-19T00:35:22;6.15;;;2.50;;
12141;SDS011;6134;59.284;18.022;2023-11-19T00:37:52;2.00;;;1.80;;
12141;SDS011;6134;59.284;18.022;2023-11-19T00:40:21;3.72;;;1.90;;
12141;SDS011;6134;59.284;18.022;2023-11-19T00:42:50;5.70;;;2.30;;
12141;SDS011;6134;59.284;18.022;2023-11-19T00:45:20;2.67;;;2.10;;
12141;SDS011;6134;59.284;18.022;2023-11-19T00:47:50;2.25;;;1.88;;
12141;SDS011;6134;59.284;18.022;2023-11-19T00:50:19;2.33;;;1.98;;
12141;SDS011;6134;59.284;18.022;2023-11-19T00:52:49;2.17;;;1.90;;
12141;SDS011;6134;59.284;18.022;2023-11-19T00:55:20;2.28;;;2.08;;
12141;SDS011;6134;59.284;18.022;2023-11-19T00:57:49;3.13;;;2.20;;
12141;SDS011;6134;59.284;18.022;2023-11-19T01:00:17;2.28;;;2.08;;
12141;SDS011;6134;59.284;18.022;2023-11-19T01:02:47;1.90;;;1.75;;
12141;SDS011;6134;59.284;18.022;2023-11-19T01:05:18;2.28;;;1.77;;
12141;SDS011;6134;59.284;18.022;2023-11-19T01:07:50;2.13;;;1.92;;
12141;SDS011;6134;59.284;18.022;2023-11-19T01:10:22;2.05;;;1.88;;
12141;SDS011;6134;59.284;18.022;2023-11-19T01:12:52;1.88;;;1.70;;
12141;SDS011;6134;59.284;18.022;2023-11-19T01:15:21;1.83;;;1.70;;
12141;SDS011;6134;59.284;18.022;2023-11-19T01:17:50;2.28;;;2.00;;
12141;SDS011;6134;59.284;18.022;2023-11-19T01:20:20;2.95;;;2.08;;
12141;SDS011;6134;59.284;18.022;2023-11-19T01:22:49;2.17;;;1.95;;
12141;SDS011;6134;59.284;18.022;2023-11-19T01:25:18;2.08;;;1.83;;
12141;SDS011;6134;59.284;18.022;2023-11-19T01:27:48;2.75;;;2.00;;
12141;SDS011;6134;59.284;18.022;2023-11-19T01:30:17;3.42;;;2.13;;
12141;SDS011;6134;59.284;18.022;2023-11-19T01:32:48;2.40;;;2.20;;
12141;SDS011;6134;59.284;18.022;2023-11-19T01:35:18;5.90;;;3.83;;
12141;SDS011;6134;59.284;18.022;2023-11-19T01:37:48;7.22;;;5.47;;
12141;SDS011;6134;59.284;18.022;2023-11-19T01:40:20;6.20;;;5.25;;
12141;SDS011;6134;59.284;18.022;2023-11-19T01:42:50;4.78;;;3.25;;
12141;SDS011;6134;59.284;18.022;2023-11-19T01:45:27;2.42;;;2.20;;
12141;SDS011;6134;59.284;18.022;2023-11-19T01:47:58;2.42;;;2.22;;
12141;SDS011;6134;59.284;18.022;2023-11-19T01:50:27;4.85;;;2.03;;
12141;SDS011;6134;59.284;18.022;2023-11-19T01:52:57;2.33;;;2.13;;
12141;SDS011;6134;59.284;18.022;2023-11-19T01:55:27;2.97;;;2.40;;
12141;SDS011;6134;59.284;18.022;2023-11-19T01:57:59;2.67;;;2.20;;
12141;SDS011;6134;59.284;18.022;2023-11-19T02:00:28;2.45;;;2.22;;
12141;SDS011;6134;59.284;18.022;2023-11-19T02:02:57;3.33;;;2.50;;
12141;SDS011;6134;59.284;18.022;2023-11-19T02:05:26;2.60;;;2.35;;
12141;SDS011;6134;59.284;18.022;2023-11-19T02:07:55;3.03;;;2.53;;
12141;SDS011;6134;59.284;18.022;2023-11-19T02:10:24;3.67;;;2.08;;
12141;SDS011;6134;59.284;18.022;2023-11-19T02:12:53;2.92;;;1.90;;
12141;SDS011;6134;59.284;18.022;2023-11-19T02:15:34;2.38;;;2.10;;
12141;SDS011;6134;59.284;18.022;2023-11-19T02:18:21;2.20;;;2.00;;
12141;SDS011;6134;59.284;18.022;2023-11-19T02:20:50;2.83;;;2.15;;
12141;SDS011;6134;59.284;18.022;2023-11-19T02:23:19;6.53;;;2.33;;
12141;SDS011;6134;59.284;18.022;2023-11-19T02:25:52;2.85;;;2.30;;
12141;SDS011;6134;59.284;18.022;2023-11-19T02:28:25;2.50;;;2.30;;
12141;SDS011;6134;59.284;18.022;2023-11-19T02:30:54;2.65;;;2.17;;
12141;SDS011;6134;59.284;18.022;2023-11-19T02:33:23;2.60;;;2.17;;
12141;SDS011;6134;59.284;18.022;2023-11-19T02:35:52;3.03;;;2.42;;
12141;SDS011;6134;59.284;18.022;2023-11-19T02:38:21;2.35;;;2.15;;
12141;SDS011;6134;59.284;18.022;2023-11-19T02:40:50;4.00;;;2.75;;
12141;SDS011;6134;59.284;18.022;2023-11-19T02:43:19;3.13;;;2.58;;
12141;SDS011;6134;59.284;18.022;2023-11-19T02:45:49;8.30;;;2.58;;
12141;SDS011;6134;59.284;18.022;2023-11-19T02:48:21;3.92;;;2.53;;
12141;SDS011;6134;59.284;18.022;2023-11-19T02:50:49;2.63;;;2.40;;
12141;SDS011;6134;59.284;18.022;2023-11-19T02:53:19;3.13;;;2.80;;
12141;SDS011;6134;59.284;18.022;2023-11-19T02:55:50;2.88;;;2.60;;
12141;SDS011;6134;59.284;18.022;2023-11-19T02:58:18;3.63;;;2.92;;
12141;SDS011;6134;59.284;18.022;2023-11-19T03:00:51;4.50;;;2.67;;
12141;SDS011;6134;59.284;18.022;2023-11-19T03:03:24;2.63;;;2.42;;
12141;SDS011;6134;59.284;18.022;2023-11-19T03:05:57;4.20;;;2.72;;
12141;SDS011;6134;59.284;18.022;2023-11-19T03:08:26;3.97;;;2.90;;
12141;SDS011;6134;59.284;18.022;2023-11-19T03:10:54;2.80;;;2.58;;
12141;SDS011;6134;59.284;18.022;2023-11-19T03:13:23;2.88;;;2.60;;
12141;SDS011;6134;59.284;18.022;2023-11-19T03:15:53;3.10;;;2.67;;
12141;SDS011;6134;59.284;18.022;2023-11-19T03:18:22;2.50;;;2.30;;
12141;SDS011;6134;59.284;18.022;2023-11-19T03:20:50;3.50;;;3.20;;
12141;SDS011;6134;59.284;18.022;2023-11-19T03:23:19;2.80;;;2.42;;
12141;SDS011;6134;59.284;18.022;2023-11-19T03:25:49;2.88;;;2.58;;
12141;SDS011;6134;59.284;18.022;2023-11-19T03:28:18;2.95;;;2.65;;
12141;SDS011;6134;59.284;18.022;2023-11-19T03:30:47;4.10;;;2.75;;
12141;SDS011;6134;59.284;18.022;2023-11-19T03:33:17;4.85;;;2.53;;
12141;SDS011;6134;59.284;18.022;2023-11-19T03:35:47;3.10;;;2.80;;
12141;SDS011;6134;59.284;18.022;2023-11-19T03:38:15;2.42;;;2.22;;
12141;SDS011;6134;59.284;18.022;2023-11-19T03:40:44;2.33;;;2.13;;
12141;SDS011;6134;59.284;18.022;2023-11-19T03:43:13;3.30;;;2.80;;
12141;SDS011;6134;59.284;18.022;2023-11-19T03:45:43;2.88;;;2.60;;
12141;SDS011;6134;59.284;18.022;2023-11-19T03:48:13;4.53;;;2.75;;
12141;SDS011;6134;59.284;18.022;2023-11-19T03:50:44;3.10;;;2.80;;
12141;SDS011;6134;59.284;18.022;2023-11-19T03:53:13;3.40;;;2.53;;
12141;SDS011;6134;59.284;18.022;2023-11-19T03:55:42;3.50;;;2.70;;
12141;SDS011;6134;59.284;18.022;2023-11-19T03:58:11;2.92;;;2.33;;
12141;SDS011;6134;59.284;18.022;2023-11-19T04:00:40;4.00;;;2.72;;
12141;SDS011;6134;59.284;18.022;2023-11-19T04:03:09;3.85;;;2.92;;
12141;SDS011;6134;59.284;18.022;2023-11-19T04:05:37;2.92;;;2.25;;
12141;SDS011;6134;59.284;18.022;2023-11-19T04:08:07;5.22;;;2.60;;
12141;SDS011;6134;59.284;18.022;2023-11-19T04:10:36;2.72;;;2.53;;
12141;SDS011;6134;59.284;18.022;2023-11-19T04:13:05;3.83;;;2.65;;
12141;SDS011;6134;59.284;18.022;2023-11-19T04:15:34;3.20;;;2.90;;
12141;SDS011;6134;59.284;18.022;2023-11-19T04:18:02;3.05;;;2.70;;
12141;SDS011;6134;59.284;18.022;2023-11-19T04:20:31;4.90;;;2.78;;
12141;SDS011;6134;59.284;18.022;2023-11-19T04:23:00;2.60;;;2.40;;
12141;SDS011;6134;59.284;18.022;2023-11-19T04:25:30;3.75;;;2.30;;
12141;SDS011;6134;59.284;18.022;2023-11-19T04:27:59;2.78;;;2.42;;
12141;SDS011;6134;59.284;18.022;2023-11-19T04:30:28;4.45;;;2.63;;
12141;SDS011;6134;59.284;18.022;2023-11-19T04:32:58;3.70;;;2.83;;
12141;SDS011;6134;59.284;18.022;2023-11-19T04:35:27;3.35;;;2.38;;
12141;SDS011;6134;59.284;18.022;2023-11-19T04:37:56;4.05;;;2.40;;
12141;SDS011;6134;59.284;18.022;2023-11-19T04:40:24;3.25;;;2.35;;
12141;SDS011;6134;59.284;18.022;2023-11-19T04:42:55;2.60;;;2.40;;
12141;SDS011;6134;59.284;18.022;2023-11-19T04:45:24;3.60;;;2.70;;
12141;SDS011;6134;59.284;18.022;2023-11-19T04:47:53;3.40;;;2.55;;
12141;SDS011;6134;59.284;18.022;2023-11-19T04:50:22;3.10;;;2.70;;
12141;SDS011;6134;59.284;18.022;2023-11-19T04:52:53;3.67;;;3.20;;
12141;SDS011;6134;59.284;18.022;2023-11-19T04:55:26;4.03;;;3.08;;
12141;SDS011;6134;59.284;18.022;2023-11-19T04:57:57;3.17;;;2.88;;
12141;SDS011;6134;59.284;18.022;2023-11-19T05:00:25;3.58;;;3.28;;
12141;SDS011;6134;59.284;18.022;2023-11-19T05:02:54;3.08;;;2.78;;
12141;SDS011;6134;59.284;18.022;2023-11-19T05:05:23;4.43;;;3.17;;
12141;SDS011;6134;59.284;18.022;2023-11-19T05:07:52;7.72;;;2.90;;
12141;SDS011;6134;59.284;18.022;2023-11-19T05:10:21;6.43;;;3.17;;
12141;SDS011;6134;59.284;18.022;2023-11-19T05:12:51;3.60;;;2.58;;
12141;SDS011;6134;59.284;18.022;2023-11-19T05:15:23;5.45;;;3.10;;
12141;SDS011;6134;59.284;18.022;2023-11-19T05:17:52;4.57;;;3.28;;
12141;SDS011;6134;59.284;18.022;2023-11-19T05:20:21;4.50;;;3.05;;
12141;SDS011;6134;59.284;18.022;2023-11-19T05:22:50;6.07;;;3.05;;
12141;SDS011;6134;59.284;18.022;2023-11-19T05:25:19;3.90;;;2.53;;
12141;SDS011;6134;59.284;18.022;2023-11-19T05:27:48;2.45;;;2.25;;
12141;SDS011;6134;59.284;18.022;2023-11-19T05:30:17;3.78;;;2.60;;
12141;SDS011;6134;59.284;18.022;2023-11-19T05:32:47;2.35;;;2.13;;
12141;SDS011;6134;59.284;18.022;2023-11-19T05:35:16;2.10;;;1.90;;
12141;SDS011;6134;59.284;18.022;2023-11-19T05:37:45;3.20;;;2.55;;
12141;SDS011;6134;59.284;18.022;2023-11-19T05:40:13;2.53;;;2.33;;
12141;SDS011;6134;59.284;18.022;2023-11-19T05:42:43;2.75;;;2.33;;
12141;SDS011;6134;59.284;18.022;2023-11-19T05:45:12;2.40;;;2.17;;
12141;SDS011;6134;59.284;18.022;2023-11-19T05:47:42;3.40;;;2.30;;
12141;SDS011;6134;59.284;18.022;2023-11-19T05:50:12;4.15;;;2.50;;
12141;SDS011;6134;59.284;18.022;2023-11-19T05:52:41;2.40;;;2.20;;
12141;SDS011;6134;59.284;18.022;2023-11-19T05:55:10;2.88;;;2.33;;
12141;SDS011;6134;59.284;18.022;2023-11-19T05:57:39;3.42;;;2.50;;
12141;SDS011;6134;59.284;18.022;2023-11-19T06:00:11;2.83;;;2.20;;
12141;SDS011;6134;59.284;18.022;2023-11-19T06:02:42;2.83;;;2.15;;
12141;SDS011;6134;59.284;18.022;2023-11-19T06:05:11;2.92;;;2.25;;
12141;SDS011;6134;59.284;18.022;2023-11-19T06:07:41;2.33;;;2.10;;
12141;SDS011;6134;59.284;18.022;2023-11-19T06:10:10;2.58;;;2.38;;
12141;SDS011;6134;59.284;18.022;2023-11-19T06:12:40;3.15;;;2.60;;
12141;SDS011;6134;59.284;18.022;2023-11-19T06:15:09;2.63;;;2.42;;
12141;SDS011;6134;59.284;18.022;2023-11-19T06:17:38;4.38;;;3.20;;
12141;SDS011;6134;59.284;18.022;2023-11-19T06:20:08;3.22;;;2.92;;
12141;SDS011;6134;59.284;18.022;2023-11-19T06:22:38;3.70;;;2.83;;
12141;SDS011;6134;59.284;18.022;2023-11-19T06:25:10;5.25;;;3.20;;
12141;SDS011;6134;59.284;18.022;2023-11-19T06:27:41;3.63;;;2.90;;
12141;SDS011;6134;59.284;18.022;2023-11-19T06:30:10;4.32;;;3.08;;
12141;SDS011;6134;59.284;18.022;2023-11-19T06:32:39;3.15;;;2.75;;
12141;SDS011;6134;59.284;18.022;2023-11-19T06:35:08;4.75;;;3.35;;
12141;SDS011;6134;59.284;18.022;2023-11-19T06:37:38;4.63;;;2.50;;
12141;SDS011;6134;59.284;18.022;2023-11-19T06:40:07;4.45;;;2.45;;
12141;SDS011;6134;59.284;18.022;2023-11-19T06:42:38;3.03;;;2.72;;
12141;SDS011;6134;59.284;18.022;2023-11-19T06:45:08;3.08;;;2.65;;
12141;SDS011;6134;59.284;18.022;2023-11-19T06:47:37;3.20;;;2.90;;
12141;SDS011;6134;59.284;18.022;2023-11-19T06:50:06;4.65;;;3.00;;
12141;SDS011;6134;59.284;18.022;2023-11-19T06:52:35;3.65;;;3.00;;
12141;SDS011;6134;59.284;18.022;2023-11-19T06:55:05;4.75;;;3.10;;
12141;SDS011;6134;59.284;18.022;2023-11-19T06:57:35;3.28;;;2.97;;
12141;SDS011;6134;59.284;18.022;2023-11-19T07:00:06;4.03;;;3.08;;
12141;SDS011;6134;59.284;18.022;2023-11-19T07:02:36;3.50;;;3.13;;
12141;SDS011;6134;59.284;18.022;2023-11-19T07:05:06;3.53;;;3.08;;
12141;SDS011;6134;59.284;18.022;2023-11-19T07:07:35;4.05;;;3.08;;
12141;SDS011;6134;59.284;18.022;2023-11-19T07:10:05;3.92;;;2.67;;
12141;SDS011;6134;59.284;18.022;2023-11-19T07:12:36;3.50;;;2.50;;
12141;SDS011;6134;59.284;18.022;2023-11-19T07:15:07;3.20;;;2.90;;
12141;SDS011;6134;59.284;18.022;2023-11-19T07:17:36;3.33;;;3.03;;
12141;SDS011;6134;59.284;18.022;2023-11-19T07:20:07;4.15;;;2.95;;
12141;SDS011;6134;59.284;18.022;2023-11-19T07:22:36;3.40;;;3.10;;
12141;SDS011;6134;59.284;18.022;2023-11-19T07:25:05;4.88;;;3.25;;
12141;SDS011;6134;59.284;18.022;2023-11-19T07:27:35;3.58;;;2.92;;
12141;SDS011;6134;59.284;18.022;2023-11-19T07:30:04;6.68;;;3.25;;
12141;SDS011;6134;59.284;18.022;2023-11-19T07:32:35;3.30;;;3.00;;
12141;SDS011;6134;59.284;18.022;2023-11-19T07:35:06;3.92;;;3.17;;
12141;SDS011;6134;59.284;18.022;2023-11-19T07:37:35;4.32;;;3.35;;
12141;SDS011;6134;59.284;18.022;2023-11-19T07:40:04;3.30;;;2.90;;
12141;SDS011;6134;59.284;18.022;2023-11-19T07:42:33;4.07;;;3.25;;
12141;SDS011;6134;59.284;18.022;2023-11-19T07:45:05;5.10;;;3.80;;
12141;SDS011;6134;59.284;18.022;2023-11-19T07:47:36;4.78;;;3.70;;
12141;SDS011;6134;59.284;18.022;2023-11-19T07:50:05;4.32;;;3.60;;
12141;SDS011;6134;59.284;18.022;2023-11-19T07:52:34;3.47;;;3.17;;
12141;SDS011;6134;59.284;18.022;2023-11-19T07:55:03;4.30;;;3.85;;
12141;SDS011;6134;59.284;18.022;2023-11-19T07:57:32;4.32;;;3.83;;
12141;SDS011;6134;59.284;18.022;2023-11-19T08:00:00;4.20;;;3.47;;
12141;SDS011;6134;59.284;18.022;2023-11-19T08:02:39;3.65;;;3.20;;
12141;SDS011;6134;59.284;18.022;2023-11-19T08:05:08;6.75;;;3.55;;
12141;SDS011;6134;59.284;18.022;2023-11-19T08:07:38;4.88;;;3.47;;
12141;SDS011;6134;59.284;18.022;2023-11-19T08:10:07;4.93;;;3.50;;
12141;SDS011;6134;59.284;18.022;2023-11-19T08:12:37;4.57;;;3.25;;
12141;SDS011;6134;59.284;18.022;2023-11-19T08:15:06;3.97;;;3.17;;
12141;SDS011;6134;59.284;18.022;2023-11-19T08:17:35;3.83;;;3.42;;
12141;SDS011;6134;59.284;18.022;2023-11-19T08:20:06;5.68;;;3.58;;
12141;SDS011;6134;59.284;18.022;2023-11-19T08:22:37;8.07;;;4.30;;
12141;SDS011;6134;59.284;18.022;2023-11-19T08:25:06;5.60;;;4.78;;
12141;SDS011;6134;59.284;18.022;2023-11-19T08:27:34;5.28;;;4.40;;
12141;SDS011;6134;59.284;18.022;2023-11-19T08:30:04;5.13;;;4.15;;
12141;SDS011;6134;59.284;18.022;2023-11-19T08:32:33;5.32;;;3.80;;
12141;SDS011;6134;59.284;18.022;2023-11-19T08:35:03;5.93;;;4.75;;
12141;SDS011;6134;59.284;18.022;2023-11-19T08:37:34;5.10;;;4.30;;
12141;SDS011;6134;59.284;18.022;2023-11-19T08:40:03;5.10;;;4.10;;
12141;SDS011;6134;59.284;18.022;2023-11-19T08:42:34;8.90;;;5.82;;
12141;SDS011;6134;59.284;18.022;2023-11-19T08:45:03;19.10;;;11.50;;
12141;SDS011;6134;59.284;18.022;2023-11-19T08:47:33;11.52;;;7.80;;
12141;SDS011;6134;59.284;18.022;2023-11-19T08:50:01;14.20;;;7.80;;
12141;SDS011;6134;59.284;18.022;2023-11-19T08:52:30;11.63;;;8.07;;
12141;SDS011;6134;59.284;18.022;2023-11-19T08:55:02;11.15;;;7.70;;
12141;SDS011;6134;59.284;18.022;2023-11-19T08:57:32;9.23;;;6.45;;
12141;SDS011;6134;59.284;18.022;2023-11-19T09:00:00;12.75;;;5.10;;
12141;SDS011;6134;59.284;18.022;2023-11-19T09:02:31;5.35;;;3.80;;
12141;SDS011;6134;59.284;18.022;2023-11-19T09:05:01;5.00;;;3.75;;
12141;SDS011;6134;59.284;18.022;2023-11-19T09:07:29;5.35;;;4.32;;
12141;SDS011;6134;59.284;18.022;2023-11-19T09:09:58;4.97;;;3.58;;
12141;SDS011;6134;59.284;18.022;2023-11-19T09:12:28;5.72;;;3.85;;
12141;SDS011;6134;59.284;18.022;2023-11-19T09:14:57;4.70;;;4.10;;
12141;SDS011;6134;59.284;18.022;2023-11-19T09:17:26;6.32;;;4.20;;
12141;SDS011;6134;59.284;18.022;2023-11-19T09:19:55;5.38;;;3.70;;
12141;SDS011;6134;59.284;18.022;2023-11-19T09:22:23;5.82;;;3.55;;
12141;SDS011;6134;59.284;18.022;2023-11-19T09:24:53;4.35;;;3.42;;
12141;SDS011;6134;59.284;18.022;2023-11-19T09:27:21;3.35;;;3.05;;
12141;SDS011;6134;59.284;18.022;2023-11-19T09:29:51;4.30;;;3.60;;
12141;SDS011;6134;59.284;18.022;2023-11-19T09:32:25;4.45;;;3.65;;
12141;SDS011;6134;59.284;18.022;2023-11-19T09:34:54;3.97;;;3.50;;
12141;SDS011;6134;59.284;18.022;2023-11-19T09:37:23;4.55;;;3.63;;
12141;SDS011;6134;59.284;18.022;2023-11-19T09:39:52;5.03;;;3.67;;
12141;SDS011;6134;59.284;18.022;2023-11-19T09:42:24;7.93;;;3.50;;
12141;SDS011;6134;59.284;18.022;2023-11-19T09:44:55;5.00;;;3.45;;
12141;SDS011;6134;59.284;18.022;2023-11-19T09:47:25;4.68;;;3.55;;
12141;SDS011;6134;59.284;18.022;2023-11-19T09:49:54;5.82;;;4.03;;
12141;SDS011;6134;59.284;18.022;2023-11-19T09:52:25;3.92;;;3.20;;
12141;SDS011;6134;59.284;18.022;2023-11-19T09:54:53;3.80;;;3.40;;
12141;SDS011;6134;59.284;18.022;2023-11-19T09:57:22;6.22;;;3.30;;
12141;SDS011;6134;59.284;18.022;2023-11-19T09:59:51;3.92;;;3.15;;
12141;SDS011;6134;59.284;18.022;2023-11-19T10:02:22;6.70;;;3.60;;
12141;SDS011;6134;59.284;18.022;2023-11-19T10:04:51;4.53;;;2.88;;
12141;SDS011;6134;59.284;18.022;2023-11-19T10:07:21;7.25;;;3.72;;
12141;SDS011;6134;59.284;18.022;2023-11-19T10:09:52;4.20;;;3.22;;
12141;SDS011;6134;59.284;18.022;2023-11-19T10:12:21;3.58;;;3.03;;
12141;SDS011;6134;59.284;18.022;2023-11-19T10:14:50;4.53;;;2.95;;
12141;SDS011;6134;59.284;18.022;2023-11-19T10:17:19;3.47;;;2.88;;
12141;SDS011;6134;59.284;18.022;2023-11-19T10:19:49;5.50;;;3.17;;
12141;SDS011;6134;59.284;18.022;2023-11-19T10:22:18;5.40;;;2.90;;
12141;SDS011;6134;59.284;18.022;2023-11-19T10:24:46;4.00;;;3.17;;
12141;SDS011;6134;59.284;18.022;2023-11-19T10:27:23;4.15;;;2.75;;
12141;SDS011;6134;59.284;18.022;2023-11-19T10:29:53;3.33;;;2.90;;
12141;SDS011;6134;59.284;18.022;2023-11-19T10:32:22;3.38;;;2.85;;
12141;SDS011;6134;59.284;18.022;2023-11-19T10:35:05;2.88;;;2.63;;
12141;SDS011;6134;59.284;18.022;2023-11-19T10:37:34;4.35;;;2.63;;
12141;SDS011;6134;59.284;18.022;2023-11-19T10:40:05;6.68;;;2.95;;
12141;SDS011;6134;59.284;18.022;2023-11-19T10:42:37;3.85;;;2.70;;
12141;SDS011;6134;59.284;18.022;2023-11-19T10:45:15;2.45;;;2.17;;
12141;SDS011;6134;59.284;18.022;2023-11-19T10:47:51;2.92;;;2.30;;
12141;SDS011;6134;59.284;18.022;2023-11-19T10:50:21;3.40;;;2.38;;
12141;SDS011;6134;59.284;18.022;2023-11-19T10:52:51;2.83;;;2.40;;
12141;SDS011;6134;59.284;18.022;2023-11-19T10:55:21;4.93;;;2.67;;
12141;SDS011;6134;59.284;18.022;2023-11-19T10:57:56;5.03;;;2.08;;
12141;SDS011;6134;59.284;18.022;2023-11-19T11:00:26;2.08;;;1.88;;
12141;SDS011;6134;59.284;18.022;2023-11-19T11:03:00;3.22;;;2.00;;
12141;SDS011;6134;59.284;18.022;2023-11-19T11:05:32;13.85;;;3.40;;
12141;SDS011;6134;59.284;18.022;2023-11-19T11:08:02;3.50;;;2.78;;
12141;SDS011;6134;59.284;18.022;2023-11-19T11:10:34;2.40;;;1.98;;
12141;SDS011;6134;59.284;18.022;2023-11-19T11:13:03;2.58;;;2.38;;
12141;SDS011;6134;59.284;18.022;2023-11-19T11:15:33;4.57;;;2.35;;
12141;SDS011;6134;59.284;18.022;2023-11-19T11:18:02;4.00;;;2.83;;
12141;SDS011;6134;59.284;18.022;2023-11-19T11:20:33;2.95;;;2.60;;
12141;SDS011;6134;59.284;18.022;2023-11-19T11:23:07;3.65;;;2.72;;
12141;SDS011;6134;59.284;18.022;2023-11-19T11:25:39;2.63;;;2.42;;
12141;SDS011;6134;59.284;18.022;2023-11-19T11:28:20;2.65;;;2.42;;
12141;SDS011;6134;59.284;18.022;2023-11-19T11:30:54;4.60;;;2.47;;
12141;SDS011;6134;59.284;18.022;2023-11-19T11:33:32;4.88;;;2.35;;
12141;SDS011;6134;59.284;18.022;2023-11-19T11:36:08;4.28;;;2.38;;
12141;SDS011;6134;59.284;18.022;2023-11-19T11:38:40;2.28;;;2.08;;
12141;SDS011;6134;59.284;18.022;2023-11-19T11:41:15;2.80;;;2.28;;
12141;SDS011;6134;59.284;18.022;2023-11-19T11:43:46;2.47;;;2.25;;
12141;SDS011;6134;59.284;18.022;2023-11-19T11:49:05;2.70;;;2.40;;
12141;SDS011;6134;59.284;18.022;2023-11-19T11:54:29;4.38;;;2.25;;
12141;SDS011;6134;59.284;18.022;2023-11-19T11:57:08;5.30;;;2.20;;
12141;SDS011;6134;59.284;18.022;2023-11-19T11:59:45;3.03;;;2.20;;
12141;SDS011;6134;59.284;18.022;2023-11-19T12:02:15;2.40;;;2.00;;
12141;SDS011;6134;59.284;18.022;2023-11-19T12:04:46;2.20;;;2.00;;
12141;SDS011;6134;59.284;18.022;2023-11-19T12:07:16;2.53;;;2.20;;
12141;SDS011;6134;59.284;18.022;2023-11-19T12:09:53;2.70;;;2.20;;
12141;SDS011;6134;59.284;18.022;2023-11-19T12:12:23;3.03;;;2.10;;
12141;SDS011;6134;59.284;18.022;2023-11-19T12:15:02;2.20;;;2.00;;
12141;SDS011;6134;59.284;18.022;2023-11-19T12:20:25;2.80;;;2.17;;
12141;SDS011;6134;59.284;18.022;2023-11-19T12:23:02;4.53;;;2.60;;
12141;SDS011;6134;59.284;18.022;2023-11-19T12:25:36;4.55;;;2.80;;
12141;SDS011;6134;59.284;18.022;2023-11-19T12:28:04;3.25;;;2.50;;
12141;SDS011;6134;59.284;18.022;2023-11-19T12:30:34;3.13;;;2.75;;
12141;SDS011;6134;59.284;18.022;2023-11-19T12:33:07;3.90;;;3.30;;
12141;SDS011;6134;59.284;18.022;2023-11-19T12:35:38;6.32;;;4.55;;
12141;SDS011;6134;59.284;18.022;2023-11-19T12:38:07;6.90;;;4.40;;
12141;SDS011;6134;59.284;18.022;2023-11-19T12:40:37;4.72;;;3.05;;
12141;SDS011;6134;59.284;18.022;2023-11-19T12:43:06;3.47;;;2.90;;
12141;SDS011;6134;59.284;18.022;2023-11-19T12:45:37;4.35;;;3.22;;
12141;SDS011;6134;59.284;18.022;2023-11-19T12:48:06;4.63;;;3.22;;
12141;SDS011;6134;59.284;18.022;2023-11-19T12:50:50;5.65;;;4.72;;
12141;SDS011;6134;59.284;18.022;2023-11-19T12:53:19;7.70;;;3.83;;
12141;SDS011;6134;59.284;18.022;2023-11-19T12:55:49;3.97;;;2.83;;
12141;SDS011;6134;59.284;18.022;2023-11-19T12:58:28;3.33;;;2.75;;
12141;SDS011;6134;59.284;18.022;2023-11-19T13:01:00;4.00;;;2.92;;
12141;SDS011;6134;59.284;18.022;2023-11-19T13:03:30;3.67;;;2.70;;
12141;SDS011;6134;59.284;18.022;2023-11-19T13:06:02;3.38;;;2.70;;
12141;SDS011;6134;59.284;18.022;2023-11-19T13:08:38;6.13;;;3.05;;
12141;SDS011;6134;59.284;18.022;2023-11-19T13:11:09;3.33;;;3.03;;
12141;SDS011;6134;59.284;18.022;2023-11-19T13:13:53;2.92;;;2.65;;
12141;SDS011;6134;59.284;18.022;2023-11-19T13:16:22;4.97;;;2.90;;
12141;SDS011;6134;59.284;18.022;2023-11-19T13:18:51;3.53;;;3.05;;
12141;SDS011;6134;59.284;18.022;2023-11-19T13:21:19;5.45;;;4.15;;
12141;SDS011;6134;59.284;18.022;2023-11-19T13:23:48;3.90;;;3.05;;
12141;SDS011;6134;59.284;18.022;2023-11-19T13:26:18;4.20;;;3.60;;
12141;SDS011;6134;59.284;18.022;2023-11-19T13:28:47;3.67;;;3.03;;
12141;SDS011;6134;59.284;18.022;2023-11-19T13:31:16;4.53;;;3.33;;
12141;SDS011;6134;59.284;18.022;2023-11-19T13:33:46;6.90;;;3.30;;
12141;SDS011;6134;59.284;18.022;2023-11-19T13:36:15;3.63;;;3.10;;
12141;SDS011;6134;59.284;18.022;2023-11-19T13:38:44;3.45;;;2.75;;
12141;SDS011;6134;59.284;18.022;2023-11-19T13:41:13;5.05;;;3.20;;
12141;SDS011;6134;59.284;18.022;2023-11-19T13:43:44;4.38;;;3.55;;
12141;SDS011;6134;59.284;18.022;2023-11-19T13:46:13;5.32;;;2.97;;
12141;SDS011;6134;59.284;18.022;2023-11-19T13:48:42;3.50;;;2.83;;
12141;SDS011;6134;59.284;18.022;2023-11-19T13:51:11;3.75;;;2.72;;
12141;SDS011;6134;59.284;18.022;2023-11-19T13:53:40;4.05;;;3.65;;
12141;SDS011;6134;59.284;18.022;2023-11-19T13:56:12;3.90;;;3.30;;
12141;SDS011;6134;59.284;18.022;2023-11-19T13:58:41;5.40;;;3.17;;
12141;SDS011;6134;59.284;18.022;2023-11-19T14:01:11;4.53;;;2.95;;
12141;SDS011;6134;59.284;18.022;2023-11-19T14:03:41;4.70;;;3.42;;
12141;SDS011;6134;59.284;18.022;2023-11-19T14:06:10;5.70;;;3.97;;
12141;SDS011;6134;59.284;18.022;2023-11-19T14:08:39;5.47;;;3.38;;
12141;SDS011;6134;59.284;18.022;2023-11-19T14:11:08;5.40;;;3.13;;
12141;SDS011;6134;59.284;18.022;2023-11-19T14:13:38;3.25;;;2.78;;
12141;SDS011;6134;59.284;18.022;2023-11-19T14:16:07;10.50;;;4.18;;
12141;SDS011;6134;59.284;18.022;2023-11-19T14:18:39;7.25;;;3.40;;
12141;SDS011;6134;59.284;18.022;2023-11-19T14:21:07;4.40;;;3.05;;
12141;SDS011;6134;59.284;18.022;2023-11-19T14:23:36;4.75;;;3.70;;
12141;SDS011;6134;59.284;18.022;2023-11-19T14:26:05;4.28;;;3.45;;
12141;SDS011;6134;59.284;18.022;2023-11-19T14:28:34;6.78;;;3.78;;
12141;SDS011;6134;59.284;18.022;2023-11-19T14:31:21;4.75;;;3.30;;
12141;SDS011;6134;59.284;18.022;2023-11-19T14:33:52;4.68;;;3.47;;
12141;SDS011;6134;59.284;18.022;2023-11-19T14:36:23;5.68;;;3.72;;
12141;SDS011;6134;59.284;18.022;2023-11-19T14:38:51;4.82;;;3.53;;
12141;SDS011;6134;59.284;18.022;2023-11-19T14:41:20;6.07;;;4.28;;
12141;SDS011;6134;59.284;18.022;2023-11-19T14:43:49;4.70;;;3.92;;
12141;SDS011;6134;59.284;18.022;2023-11-19T14:46:19;6.03;;;4.13;;
12141;SDS011;6134;59.284;18.022;2023-11-19T14:48:48;4.75;;;3.50;;
12141;SDS011;6134;59.284;18.022;2023-11-19T14:51:20;6.35;;;3.88;;
12141;SDS011;6134;59.284;18.022;2023-11-19T14:53:49;7.38;;;3.70;;
12141;SDS011;6134;59.284;18.022;2023-11-19T14:56:17;6.68;;;3.85;;
12141;SDS011;6134;59.284;18.022;2023-11-19T14:58:46;4.90;;;3.58;;
12141;SDS011;6134;59.284;18.022;2023-11-19T15:01:17;4.53;;;3.60;;
12141;SDS011;6134;59.284;18.022;2023-11-19T15:03:46;3.83;;;2.90;;
12141;SDS011;6134;59.284;18.022;2023-11-19T15:06:22;5.13;;;3.35;;
12141;SDS011;6134;59.284;18.022;2023-11-19T15:08:51;5.57;;;3.63;;
12141;SDS011;6134;59.284;18.022;2023-11-19T15:11:19;4.85;;;2.92;;
12141;SDS011;6134;59.284;18.022;2023-11-19T15:13:49;3.65;;;2.90;;